^^
Your Local Weather - Clay, NY Station Historical Data
Daily Summary for October 3, 2017 Units:  English    Metric   Both
« Previous Day
Next Day »
Daily Weekly Monthly Yearly Custom
  High: Low: Average:
Temperature: 75.5 °F 42.8 °F 58.1 °F
Dew Point: 50.4 °F 40.6 °F 45.9 °F
Humidity: 93% 37% 68%
Wind Speed: 7.0mph 0.0mph 1.7mph
Wind Gust: 11.0mph - -
Wind- - South
Pressure: 30.52 in 30.37 in -
Precipitation: 0.00 in    
Historical Graphs
 
 
Tabular Data for October 3, 2017
Time Temperature Dew Point Pressure Wind Wind Speed Wind Gust Humidity Rainfall Rate (Hourly) solar
00:02 44.8 °F 42.6 °F 30.41 in Calm     92% 0.00 in 0 W/m2
00:08 44.5 °F 42.3 °F 30.41 in Calm     92% 0.00 in 0 W/m2
00:14 44.4 °F 42.2 °F 30.41 in Calm     92% 0.00 in 0 W/m2
00:20 44.6 °F 42.4 °F 30.41 in Calm     92% 0.00 in 0 W/m2
00:26 44.9 °F 42.7 °F 30.41 in Calm   1.0 mph 92% 0.00 in 0 W/m2
00:32 44.9 °F 42.7 °F 30.42 in Calm     92% 0.00 in 0 W/m2
00:38 44.9 °F 42.7 °F 30.43 in Calm     92% 0.00 in 0 W/m2
00:44 44.8 °F 42.6 °F 30.43 in Calm     92% 0.00 in 0 W/m2
00:50 44.7 °F 42.5 °F 30.43 in Calm     92% 0.00 in 0 W/m2
00:56 44.9 °F 42.7 °F 30.43 in Calm     92% 0.00 in 0 W/m2
01:02 44.7 °F 42.5 °F 30.43 in Calm     92% 0.00 in 0 W/m2
01:08 44.4 °F 42.2 °F 30.43 in Calm     92% 0.00 in 0 W/m2
01:14 44.2 °F 42.0 °F 30.43 in Calm     92% 0.00 in 0 W/m2
01:20 44.1 °F 41.9 °F 30.43 in Calm     92% 0.00 in 0 W/m2
01:26 43.9 °F 41.7 °F 30.43 in Calm     92% 0.00 in 0 W/m2
01:32 43.7 °F 41.5 °F 30.43 in Calm     92% 0.00 in 0 W/m2
01:38 43.5 °F 41.3 °F 30.43 in Calm     92% 0.00 in 0 W/m2
01:44 43.4 °F 41.2 °F 30.43 in Calm     92% 0.00 in 0 W/m2
01:50 43.3 °F 41.1 °F 30.43 in Calm     92% 0.00 in 0 W/m2
01:56 43.1 °F 40.9 °F 30.42 in Calm     92% 0.00 in 0 W/m2
02:02 43.0 °F 40.8 °F 30.42 in Calm     92% 0.00 in 0 W/m2
02:08 42.8 °F 40.6 °F 30.42 in Calm     92% 0.00 in 0 W/m2
02:14 42.9 °F 40.7 °F 30.42 in Calm     92% 0.00 in 0 W/m2
02:20 43.3 °F 41.1 °F 30.43 in Calm     92% 0.00 in 0 W/m2
02:32 43.6 °F 41.4 °F 30.44 in ENE 1.0 mph 1.0 mph 92% 0.00 in 0 W/m2
02:38 43.7 °F 41.8 °F 30.44 in ENE 1.0 mph 1.0 mph 93% 0.00 in 0 W/m2
02:44 43.6 °F 41.7 °F 30.44 in Calm     93% 0.00 in 0 W/m2
02:50 43.3 °F 41.1 °F 30.43 in Calm     92% 0.00 in 0 W/m2
02:56 43.4 °F 41.2 °F 30.43 in Calm     92% 0.00 in 0 W/m2
03:02 43.7 °F 41.8 °F 30.44 in Calm     93% 0.00 in 0 W/m2
03:08 43.4 °F 41.2 °F 30.44 in Calm     92% 0.00 in 0 W/m2
03:14 43.2 °F 41.0 °F 30.44 in Calm     92% 0.00 in 0 W/m2
03:20 43.0 °F 40.8 °F 30.44 in Calm     92% 0.00 in 0 W/m2
03:26 43.1 °F 40.9 °F 30.44 in Calm   2.0 mph 92% 0.00 in 0 W/m2
03:32 43.4 °F 41.5 °F 30.44 in Calm     93% 0.00 in 0 W/m2
03:38 43.6 °F 41.7 °F 30.44 in Calm     93% 0.00 in 0 W/m2
03:44 44.0 °F 42.1 °F 30.44 in Calm     93% 0.00 in 0 W/m2
03:50 44.0 °F 42.1 °F 30.43 in Calm     93% 0.00 in 0 W/m2
03:56 44.1 °F 42.2 °F 30.44 in Calm     93% 0.00 in 0 W/m2
04:02 44.2 °F 42.3 °F 30.44 in Calm     93% 0.00 in 0 W/m2
04:08 44.1 °F 42.2 °F 30.44 in Calm     93% 0.00 in 0 W/m2
04:20 44.0 °F 42.1 °F 30.44 in Calm     93% 0.00 in 0 W/m2
04:26 44.0 °F 42.1 °F 30.44 in Calm     93% 0.00 in 0 W/m2
04:32 44.2 °F 42.3 °F 30.44 in Calm     93% 0.00 in 0 W/m2
04:38 44.2 °F 42.3 °F 30.44 in Calm     93% 0.00 in 0 W/m2
04:44 44.0 °F 42.1 °F 30.44 in Calm     93% 0.00 in 0 W/m2
04:50 44.1 °F 42.2 °F 30.44 in Calm     93% 0.00 in 0 W/m2
04:56 44.0 °F 42.1 °F 30.44 in Calm     93% 0.00 in 0 W/m2
05:02 44.1 °F 42.2 °F 30.44 in Calm     93% 0.00 in 0 W/m2
05:08 44.1 °F 42.2 °F 30.44 in Calm   2.0 mph 93% 0.00 in 0 W/m2
05:14 44.2 °F 42.3 °F 30.45 in Calm     93% 0.00 in 0 W/m2
05:20 44.4 °F 42.5 °F 30.45 in Calm   1.0 mph 93% 0.00 in 0 W/m2
05:26 44.4 °F 42.5 °F 30.46 in Calm   2.0 mph 93% 0.00 in 0 W/m2
05:32 44.2 °F 42.3 °F 30.46 in Calm     93% 0.00 in 0 W/m2
05:38 44.1 °F 42.2 °F 30.46 in Calm     93% 0.00 in 0 W/m2
05:44 44.0 °F 42.1 °F 30.46 in Calm   1.0 mph 93% 0.00 in 0 W/m2
05:50 44.0 °F 42.1 °F 30.46 in Calm     93% 0.00 in 0 W/m2
05:56 43.9 °F 41.7 °F 30.46 in Calm   2.0 mph 92% 0.00 in 0 W/m2
06:02 43.7 °F 41.5 °F 30.46 in Calm     92% 0.00 in 0 W/m2
06:08 43.7 °F 41.5 °F 30.46 in East 1.0 mph 1.0 mph 92% 0.00 in 0 W/m2
06:14 43.8 °F 41.6 °F 30.47 in East 1.0 mph 1.0 mph 92% 0.00 in 0 W/m2
06:20 43.8 °F 41.6 °F 30.47 in East 1.0 mph 1.0 mph 92% 0.00 in 0 W/m2
06:26 43.5 °F 41.3 °F 30.47 in Calm   1.0 mph 92% 0.00 in 0 W/m2
06:32 43.2 °F 41.0 °F 30.47 in Calm     92% 0.00 in 0 W/m2
06:38 43.1 °F 40.9 °F 30.48 in Calm   1.0 mph 92% 0.00 in 0 W/m2
06:44 43.3 °F 41.1 °F 30.48 in Calm   1.0 mph 92% 0.00 in 0 W/m2
06:50 43.2 °F 41.0 °F 30.48 in Calm     92% 0.00 in 0 W/m2
06:56 42.8 °F 40.6 °F 30.48 in Calm     92% 0.00 in 0 W/m2
07:02 42.9 °F 40.7 °F 30.48 in Calm   1.0 mph 92% 0.00 in 0 W/m2
07:08 43.0 °F 40.8 °F 30.48 in Calm   2.0 mph 92% 0.00 in 5 W/m2
07:14 43.0 °F 40.8 °F 30.49 in Calm     92% 0.00 in 7 W/m2
07:20 43.1 °F 40.9 °F 30.49 in Calm     92% 0.00 in 11 W/m2
07:26 43.2 °F 41.0 °F 30.49 in Calm   1.0 mph 92% 0.00 in 12 W/m2
07:32 43.3 °F 41.1 °F 30.49 in Calm     92% 0.00 in 16 W/m2
07:38 43.4 °F 41.2 °F 30.49 in Calm   2.0 mph 92% 0.00 in 19 W/m2
07:44 43.5 °F 41.3 °F 30.49 in Calm     92% 0.00 in 21 W/m2
07:50 44.0 °F 41.8 °F 30.49 in Calm     92% 0.00 in 25 W/m2
07:56 44.2 °F 42.0 °F 30.49 in Calm     92% 0.00 in 28 W/m2
08:02 44.5 °F 42.3 °F 30.49 in Calm     92% 0.00 in 30 W/m2
08:08 45.0 °F 42.8 °F 30.49 in Calm   1.0 mph 92% 0.00 in 49 W/m2
08:14 45.5 °F 43.3 °F 30.50 in Calm     92% 0.00 in 81 W/m2
08:20 46.3 °F 43.8 °F 30.50 in Calm     91% 0.00 in 42 W/m2
08:26 47.2 °F 44.4 °F 30.50 in Calm     90% 0.00 in 67 W/m2
08:32 48.5 °F 44.8 °F 30.50 in Calm     87% 0.00 in 125 W/m2
08:38 49.8 °F 45.2 °F 30.50 in ESE 1.0 mph 1.0 mph 84% 0.00 in 88 W/m2
08:44 50.7 °F 45.4 °F 30.50 in ESE 1.0 mph 1.0 mph 82% 0.00 in 81 W/m2
08:50 51.8 °F 45.5 °F 30.50 in Calm     79% 0.00 in 104 W/m2
08:56 52.5 °F 45.5 °F 30.50 in East 1.0 mph 2.0 mph 77% 0.00 in 144 W/m2
09:02 53.3 °F 45.9 °F 30.50 in SE 1.0 mph 1.0 mph 76% 0.00 in 130 W/m2
09:08 54.1 °F 46.0 °F 30.50 in SE 1.0 mph 2.0 mph 74% 0.00 in 70 W/m2
09:14 55.0 °F 46.5 °F 30.50 in ESE 1.0 mph 2.0 mph 73% 0.00 in 88 W/m2
09:20 55.5 °F 45.9 °F 30.50 in SE 1.0 mph 2.0 mph 70% 0.00 in 250 W/m2
09:26 56.2 °F 46.5 °F 30.50 in SSE 2.0 mph 5.0 mph 70% 0.00 in 67 W/m2
09:32 56.9 °F 47.2 °F 30.50 in SE 2.0 mph 2.0 mph 70% 0.00 in 60 W/m2
09:38 57.9 °F 47.0 °F 30.51 in SE 1.0 mph 3.0 mph 67% 0.00 in 399 W/m2
09:44 59.0 °F 46.8 °F 30.51 in East 1.0 mph 2.0 mph 64% 0.00 in 420 W/m2
09:50 60.0 °F 47.8 °F 30.52 in ESE 1.0 mph 2.0 mph 64% 0.00 in 448 W/m2
09:56 60.9 °F 48.2 °F 30.51 in SE 1.0 mph 2.0 mph 63% 0.00 in 469 W/m2
10:03 61.7 °F 47.7 °F 30.52 in SE 2.0 mph 7.0 mph 60% 0.00 in 487 W/m2
10:08 61.9 °F 47.4 °F 30.52 in SSE 3.0 mph 7.0 mph 59% 0.00 in 501 W/m2
10:14 62.5 °F 47.5 °F 30.52 in SSE 3.0 mph 6.0 mph 58% 0.00 in 510 W/m2
10:20 62.7 °F 47.7 °F 30.51 in SSE 3.0 mph 4.0 mph 58% 0.00 in 529 W/m2
10:26 63.4 °F 48.4 °F 30.51 in SSE 2.0 mph 4.0 mph 58% 0.00 in 545 W/m2
10:32 64.0 °F 48.9 °F 30.51 in SSE 2.0 mph 6.0 mph 58% 0.00 in 561 W/m2
10:38 64.0 °F 49.4 °F 30.50 in SSE 3.0 mph 6.0 mph 59% 0.00 in 573 W/m2
10:44 64.8 °F 49.7 °F 30.50 in ESE 3.0 mph 3.0 mph 58% 0.00 in 585 W/m2
10:50 65.6 °F 50.4 °F 30.50 in South 2.0 mph 2.0 mph 58% 0.00 in 594 W/m2
10:56 66.6 °F 49.4 °F 30.50 in SSW 3.0 mph 4.0 mph 54% 0.00 in 603 W/m2
11:02 67.7 °F 48.9 °F 30.49 in SSW 4.0 mph 5.0 mph 51% 0.00 in 610 W/m2
11:08 68.0 °F 50.2 °F 30.49 in SE 5.0 mph 9.0 mph 53% 0.00 in 622 W/m2
11:14 67.8 °F 49.0 °F 30.48 in SSW 6.0 mph 7.0 mph 51% 0.00 in 633 W/m2
11:20 68.0 °F 48.1 °F 30.48 in SW 7.0 mph 7.0 mph 49% 0.00 in 642 W/m2
11:26 68.2 °F 48.3 °F 30.47 in South 7.0 mph 7.0 mph 49% 0.00 in 649 W/m2
11:32 68.9 °F 48.9 °F 30.47 in SSE 6.0 mph 6.0 mph 49% 0.00 in 649 W/m2
11:38 69.3 °F 48.8 °F 30.47 in SSE 6.0 mph 7.0 mph 48% 0.00 in 657 W/m2
11:44 69.4 °F 49.4 °F 30.47 in SE 6.0 mph 9.0 mph 49% 0.00 in 664 W/m2
11:50 69.4 °F 48.3 °F 30.46 in South 6.0 mph 6.0 mph 47% 0.00 in 657 W/m2
11:56 69.8 °F 48.7 °F 30.46 in South 6.0 mph 8.0 mph 47% 0.00 in 668 W/m2
12:02 70.3 °F 49.1 °F 30.46 in South 5.0 mph 9.0 mph 47% 0.00 in 640 W/m2
12:08 70.4 °F 49.2 °F 30.45 in SW 5.0 mph 9.0 mph 47% 0.00 in 698 W/m2
12:14 70.8 °F 48.4 °F 30.45 in SSW 6.0 mph 6.0 mph 45% 0.00 in 701 W/m2
12:20 70.9 °F 48.5 °F 30.45 in WSW 6.0 mph 6.0 mph 45% 0.00 in 703 W/m2
12:26 71.5 °F 48.4 °F 30.45 in SW 5.0 mph 8.0 mph 44% 0.00 in 700 W/m2
12:32 71.3 °F 47.6 °F 30.45 in South 4.0 mph 6.0 mph 43% 0.00 in 700 W/m2
12:40 72.1 °F 49.0 °F 30.45 in SW 4.0 mph 4.0 mph 44% 0.00 in 701 W/m2
12:46 71.9 °F 49.4 °F 30.44 in South 4.0 mph 10.0 mph 45% 0.00 in 700 W/m2
12:52 72.2 °F 49.7 °F 30.44 in SW 5.0 mph 6.0 mph 45% 0.00 in 707 W/m2
12:58 72.4 °F 49.3 °F 30.44 in SSE 5.0 mph 6.0 mph 44% 0.00 in 708 W/m2
13:04 72.4 °F 48.6 °F 30.44 in SW 5.0 mph 8.0 mph 43% 0.00 in 707 W/m2
13:12 73.0 °F 49.2 °F 30.44 in South 4.0 mph 6.0 mph 43% 0.00 in 698 W/m2
13:18 72.8 °F 48.4 °F 30.44 in SW 4.0 mph 6.0 mph 42% 0.00 in 700 W/m2
13:24 73.2 °F 48.1 °F 30.44 in South 4.0 mph 5.0 mph 41% 0.00 in 696 W/m2
13:30 73.7 °F 49.8 °F 30.44 in SW 3.0 mph 4.0 mph 43% 0.00 in 700 W/m2
13:36 73.7 °F 48.5 °F 30.44 in South 4.0 mph 6.0 mph 41% 0.00 in 691 W/m2
13:42 73.0 °F 48.5 °F 30.43 in SSW 5.0 mph 7.0 mph 42% 0.00 in 684 W/m2
13:48 73.3 °F 48.2 °F 30.42 in SSW 5.0 mph 7.0 mph 41% 0.00 in 682 W/m2
13:54 73.6 °F 48.4 °F 30.42 in South 5.0 mph 5.0 mph 41% 0.00 in 573 W/m2
14:00 74.1 °F 48.2 °F 30.42 in WSW 5.0 mph 5.0 mph 40% 0.00 in 679 W/m2
14:06 73.7 °F 47.9 °F 30.42 in SSW 4.0 mph 8.0 mph 40% 0.00 in 670 W/m2
14:12 74.0 °F 48.8 °F 30.42 in WSW 5.0 mph 8.0 mph 41% 0.00 in 657 W/m2
14:18 74.6 °F 48.7 °F 30.42 in SSW 4.0 mph 8.0 mph 40% 0.00 in 650 W/m2
14:24 74.5 °F 47.2 °F 30.42 in SW 4.0 mph 8.0 mph 38% 0.00 in 643 W/m2
14:30 74.2 °F 48.3 °F 30.42 in South 4.0 mph 10.0 mph 40% 0.00 in 638 W/m2
14:36 74.3 °F 47.7 °F 30.42 in SSW 5.0 mph 10.0 mph 39% 0.00 in 631 W/m2
14:42 74.2 °F 49.0 °F 30.41 in WSW 5.0 mph 6.0 mph 41% 0.00 in 621 W/m2
14:48 74.7 °F 47.4 °F 30.41 in SW 4.0 mph 6.0 mph 38% 0.00 in 608 W/m2
14:54 74.3 °F 47.0 °F 30.41 in SE 5.0 mph 8.0 mph 38% 0.00 in 598 W/m2
15:00 74.5 °F 47.2 °F 30.41 in South 6.0 mph 7.0 mph 38% 0.00 in 585 W/m2
15:06 74.6 °F 48.0 °F 30.42 in WSW 5.0 mph 7.0 mph 39% 0.00 in 571 W/m2
15:12 75.5 °F 48.8 °F 30.41 in WSW 3.0 mph 4.0 mph 39% 0.00 in 561 W/m2
15:18 75.5 °F 47.4 °F 30.41 in SSW 3.0 mph 6.0 mph 37% 0.00 in 545 W/m2
15:24 75.2 °F 48.5 °F 30.41 in SE 4.0 mph 4.0 mph 39% 0.00 in 534 W/m2
15:30 75.2 °F 48.5 °F 30.42 in South 4.0 mph 4.0 mph 39% 0.00 in 520 W/m2
15:36 75.1 °F 47.0 °F 30.42 in WSW 4.0 mph 6.0 mph 37% 0.00 in 504 W/m2
15:42 75.0 °F 49.0 °F 30.41 in SW 4.0 mph 5.0 mph 40% 0.00 in 487 W/m2
15:48 74.7 °F 47.4 °F 30.41 in SE 4.0 mph 11.0 mph 38% 0.00 in 475 W/m2
15:54 74.7 °F 48.8 °F 30.41 in SSE 4.0 mph 5.0 mph 40% 0.00 in 459 W/m2
16:00 74.3 °F 47.7 °F 30.41 in SSE 4.0 mph 7.0 mph 39% 0.00 in 439 W/m2
16:06 74.6 °F 48.0 °F 30.41 in SW 5.0 mph 7.0 mph 39% 0.00 in 429 W/m2
16:12 75.1 °F 50.4 °F 30.41 in South 3.0 mph 4.0 mph 42% 0.00 in 411 W/m2
16:18 74.9 °F 48.9 °F 30.41 in SSE 3.0 mph 4.0 mph 40% 0.00 in 396 W/m2
16:24 74.6 °F 48.7 °F 30.40 in SW 4.0 mph 4.0 mph 40% 0.00 in 380 W/m2
16:30 74.9 °F 48.3 °F 30.40 in South 4.0 mph 4.0 mph 39% 0.00 in 366 W/m2
16:36 74.6 °F 47.3 °F 30.40 in SW 4.0 mph 8.0 mph 38% 0.00 in 348 W/m2
16:42 74.3 °F 47.0 °F 30.40 in South 5.0 mph 6.0 mph 38% 0.00 in 327 W/m2
16:48 74.3 °F 48.4 °F 30.40 in SSE 5.0 mph 7.0 mph 40% 0.00 in 309 W/m2
16:54 74.0 °F 48.1 °F 30.40 in SSW 4.0 mph 6.0 mph 40% 0.00 in 292 W/m2
17:00 74.2 °F 48.3 °F 30.40 in South 3.0 mph 6.0 mph 40% 0.00 in 276 W/m2
17:06 74.0 °F 49.4 °F 30.39 in SSE 3.0 mph 6.0 mph 42% 0.00 in 258 W/m2
17:12 74.1 °F 48.9 °F 30.39 in SW 2.0 mph 4.0 mph 41% 0.00 in 237 W/m2
17:18 73.8 °F 48.0 °F 30.39 in SSE 3.0 mph 5.0 mph 40% 0.00 in 221 W/m2
17:24 73.5 °F 48.4 °F 30.39 in South 3.0 mph 6.0 mph 41% 0.00 in 214 W/m2
17:30 73.4 °F 48.3 °F 30.39 in SSW 3.0 mph 3.0 mph 41% 0.00 in 197 W/m2
17:36 73.2 °F 48.1 °F 30.39 in SSW 3.0 mph 5.0 mph 41% 0.00 in 81 W/m2
17:42 72.7 °F 48.3 °F 30.39 in SSE 4.0 mph 4.0 mph 42% 0.00 in 44 W/m2
17:48 72.4 °F 48.0 °F 30.39 in South 3.0 mph 4.0 mph 42% 0.00 in 39 W/m2
17:54 72.3 °F 47.9 °F 30.39 in SSE 3.0 mph 4.0 mph 42% 0.00 in 39 W/m2
18:00 71.8 °F 48.1 °F 30.39 in SSE 2.0 mph 2.0 mph 43% 0.00 in 33 W/m2
18:06 71.5 °F 47.8 °F 30.39 in SSE 3.0 mph 6.0 mph 43% 0.00 in 30 W/m2
18:12 71.2 °F 47.6 °F 30.39 in South 3.0 mph 4.0 mph 43% 0.00 in 26 W/m2
18:18 71.1 °F 46.8 °F 30.39 in SSE 3.0 mph 4.0 mph 42% 0.00 in 21 W/m2
18:24 70.7 °F 47.1 °F 30.39 in SSE 3.0 mph 4.0 mph 43% 0.00 in 18 W/m2
18:30 70.0 °F 47.7 °F 30.39 in SSE 2.0 mph 2.0 mph 45% 0.00 in 12 W/m2
18:36 69.0 °F 50.1 °F 30.39 in Calm   2.0 mph 51% 0.00 in 9 W/m2
18:42 67.6 °F 48.8 °F 30.38 in Calm   1.0 mph 51% 0.00 in 0 W/m2
18:48 66.4 °F 48.7 °F 30.38 in Calm   1.0 mph 53% 0.00 in 0 W/m2
18:54 65.4 °F 49.3 °F 30.38 in Calm     56% 0.00 in 0 W/m2
19:00 64.3 °F 49.7 °F 30.38 in Calm     59% 0.00 in 0 W/m2
19:06 63.4 °F 49.3 °F 30.38 in Calm     60% 0.00 in 0 W/m2
19:12 62.7 °F 49.9 °F 30.38 in Calm     63% 0.00 in 0 W/m2
19:18 61.9 °F 50.0 °F 30.38 in Calm     65% 0.00 in 0 W/m2
19:24 61.4 °F 49.5 °F 30.38 in Calm     65% 0.00 in 0 W/m2
19:30 61.1 °F 49.2 °F 30.38 in Calm     65% 0.00 in 0 W/m2
19:36 60.7 °F 49.7 °F 30.38 in Calm     67% 0.00 in 0 W/m2
19:42 60.5 °F 49.9 °F 30.38 in Calm     68% 0.00 in 0 W/m2
19:48 60.2 °F 50.0 °F 30.38 in Calm     69% 0.00 in 0 W/m2
19:54 60.1 °F 49.9 °F 30.38 in Calm     69% 0.00 in 0 W/m2
20:00 59.7 °F 49.1 °F 30.38 in Calm     68% 0.00 in 0 W/m2
20:06 59.3 °F 49.5 °F 30.38 in Calm     70% 0.00 in 0 W/m2
20:12 58.8 °F 49.0 °F 30.38 in Calm     70% 0.00 in 0 W/m2
20:18 58.4 °F 49.0 °F 30.38 in Calm     71% 0.00 in 0 W/m2
20:24 58.0 °F 49.4 °F 30.38 in Calm     73% 0.00 in 0 W/m2
20:30 57.6 °F 49.4 °F 30.39 in Calm     74% 0.00 in 0 W/m2
20:36 57.3 °F 49.8 °F 30.38 in Calm     76% 0.00 in 0 W/m2
20:42 57.0 °F 49.5 °F 30.39 in Calm     76% 0.00 in 0 W/m2
20:48 56.6 °F 49.1 °F 30.39 in Calm     76% 0.00 in 0 W/m2
20:54 56.4 °F 49.3 °F 30.39 in Calm     77% 0.00 in 0 W/m2
21:00 56.2 °F 49.1 °F 30.39 in Calm     77% 0.00 in 0 W/m2
21:06 56.0 °F 48.5 °F 30.39 in Calm     76% 0.00 in 0 W/m2
21:12 55.8 °F 48.7 °F 30.39 in Calm     77% 0.00 in 0 W/m2
21:18 55.5 °F 48.4 °F 30.39 in Calm     77% 0.00 in 0 W/m2
21:24 55.4 °F 49.0 °F 30.39 in Calm     79% 0.00 in 0 W/m2
21:30 55.2 °F 48.8 °F 30.39 in Calm     79% 0.00 in 0 W/m2
21:36 55.0 °F 48.9 °F 30.38 in Calm     80% 0.00 in 0 W/m2
21:42 54.7 °F 48.6 °F 30.38 in Calm     80% 0.00 in 0 W/m2
21:48 54.4 °F 48.4 °F 30.38 in Calm     80% 0.00 in 0 W/m2
21:54 54.4 °F 48.4 °F 30.38 in Calm     80% 0.00 in 0 W/m2
22:00 54.3 °F 47.9 °F 30.38 in Calm     79% 0.00 in 0 W/m2
22:06 54.1 °F 47.7 °F 30.38 in Calm     79% 0.00 in 0 W/m2
22:12 54.1 °F 48.1 °F 30.38 in Calm   2.0 mph 80% 0.00 in 0 W/m2
22:18 55.1 °F 48.0 °F 30.39 in SSW 1.0 mph 3.0 mph 77% 0.00 in 0 W/m2
22:24 57.1 °F 47.8 °F 30.39 in WSW 1.0 mph 2.0 mph 71% 0.00 in 0 W/m2
22:30 59.6 °F 47.4 °F 30.39 in SW 2.0 mph 3.0 mph 64% 0.00 in 0 W/m2
22:36 61.0 °F 47.0 °F 30.39 in SSW 2.0 mph 3.0 mph 60% 0.00 in 0 W/m2
22:42 61.4 °F 46.9 °F 30.38 in South 2.0 mph 4.0 mph 59% 0.00 in 0 W/m2
22:48 61.6 °F 46.7 °F 30.38 in SSW 3.0 mph 4.0 mph 58% 0.00 in 0 W/m2
22:54 62.1 °F 46.7 °F 30.38 in South 3.0 mph 5.0 mph 57% 0.00 in 0 W/m2
23:00 62.0 °F 46.6 °F 30.38 in SSW 2.0 mph 4.0 mph 57% 0.00 in 0 W/m2
23:06 62.1 °F 46.2 °F 30.38 in South 2.0 mph 4.0 mph 56% 0.00 in 0 W/m2
23:14 62.1 °F 46.2 °F 30.37 in SW 2.0 mph 3.0 mph 56% 0.00 in 0 W/m2
23:20 61.8 °F 45.9 °F 30.38 in SW 2.0 mph 2.0 mph 56% 0.00 in 0 W/m2
23:26 61.7 °F 45.8 °F 30.38 in SSW 2.0 mph 4.0 mph 56% 0.00 in 0 W/m2
23:32 61.5 °F 46.1 °F 30.38 in South 1.0 mph 2.0 mph 57% 0.00 in 0 W/m2
23:38 61.4 °F 46.0 °F 30.38 in SSE 2.0 mph 3.0 mph 57% 0.00 in 0 W/m2
23:44 61.6 °F 46.2 °F 30.38 in South 2.0 mph 3.0 mph 57% 0.00 in 0 W/m2
23:50 61.6 °F 45.7 °F 30.38 in SSW 1.0 mph 1.0 mph 56% 0.00 in 0 W/m2
23:52 61.6 °F 45.7 °F 30.38 in SW 1.0 mph 1.0 mph 56% 0.00 in 0 W/m2
23:58 61.6 °F 45.7 °F 30.38 in SSW 2.0 mph 2.0 mph 56% 0.00 in 0 W/m2
Country Meadow, Clay, NY, USA
Compliments of Weather Underground - 2 mb